Time;durP1;ratioP1;P1;durP2;ratioP2;P2;SDS_P1;SDS_P2;PMS_P1;PMS_P2;Temp;Humidity;BMP_temperature;BMP_pressure;BME280_temperature;BME280_humidity;BME280_pressure;Samples;Min_cycle;Max_cycle;Signal;HPM_P1;HPM_P2
2023/10/24 00:02:24;;;;;;;0.10;0.10;;;;;;;14.04;79.76;100274.28;5089763;28;20062;-81
2023/10/24 00:04:50;;;;;;;0.10;0.10;;;;;;;14.04;80.14;100263.63;5085614;28;20101;-81
2023/10/24 00:07:16;;;;;;;0.47;0.47;;;;;;;13.97;80.25;100263.06;5083320;28;20032;-82
2023/10/24 00:09:42;;;;;;;1.17;0.55;;;;;;;14.04;79.96;100259.19;5077329;28;20041;-82
2023/10/24 00:12:08;;;;;;;0.10;0.10;;;;;;;14.01;80.46;100258.47;5082194;28;20054;-82
2023/10/24 00:14:34;;;;;;;0.10;0.10;;;;;;;14.03;80.39;100256.56;5084331;28;20028;-81
2023/10/24 00:17:01;;;;;;;0.10;0.10;;;;;;;14.03;80.61;100251.25;5085149;28;20557;-80
2023/10/24 00:19:27;;;;;;;0.10;0.10;;;;;;;14.03;80.68;100251.25;5082795;28;20046;-82
2023/10/24 00:21:53;;;;;;;0.10;0.10;;;;;;;14.09;80.34;100250.97;5077651;28;20091;-83
2023/10/24 00:24:21;;;;;;;0.10;0.10;;;;;;;14.10;80.14;100244.72;5086596;28;20028;-83
2023/10/24 00:26:47;;;;;;;0.10;0.10;;;;;;;14.11;80.11;100233.13;5080201;28;20537;-83
2023/10/24 00:29:13;;;;;;;0.10;0.10;;;;;;;14.10;80.46;100228.75;5081744;28;20020;-83
2023/10/24 00:31:39;;;;;;;0.10;0.10;;;;;;;14.12;80.18;100224.22;5090693;28;20037;-82
2023/10/24 00:34:05;;;;;;;2.40;0.63;;;;;;;14.13;80.50;100233.06;5092252;28;20032;-84
2023/10/24 00:36:31;;;;;;;0.10;0.10;;;;;;;14.13;80.53;100230.41;5086709;28;20028;-83
2023/10/24 00:38:57;;;;;;;0.20;0.20;;;;;;;14.12;80.49;100234.00;5090413;28;20078;-84
2023/10/24 00:41:23;;;;;;;0.20;0.20;;;;;;;14.14;80.45;100230.31;5085765;28;20059;-83
2023/10/24 00:43:49;;;;;;;0.10;0.10;;;;;;;14.14;80.67;100238.31;5081015;28;20059;-84
2023/10/24 00:46:16;;;;;;;1.65;0.50;;;;;;;14.14;80.76;100227.66;5078746;28;20020;-82
2023/10/24 00:48:43;;;;;;;0.10;0.10;;;;;;;14.13;80.76;100222.41;5086339;28;20024;-84
2023/10/24 00:51:09;;;;;;;0.15;0.15;;;;;;;14.17;80.75;100226.69;5091264;28;20093;-82
2023/10/24 00:53:36;;;;;;;0.10;0.10;;;;;;;14.17;80.77;100227.53;5091363;28;20100;-83
2023/10/24 00:56:02;;;;;;;0.13;0.13;;;;;;;14.16;80.68;100220.47;5082544;28;20526;-84
2023/10/24 00:58:29;;;;;;;0.10;0.10;;;;;;;14.16;80.70;100223.13;5077704;28;20161;-84
2023/10/24 01:00:56;;;;;;;2.03;0.82;;;;;;;14.17;80.90;100222.22;5085565;28;20032;-83
2023/10/24 01:03:22;;;;;;;0.30;0.30;;;;;;;14.13;81.03;100225.97;5087204;28;20027;-81
2023/10/24 01:05:50;;;;;;;0.10;0.10;;;;;;;14.17;81.00;100221.34;5090114;28;20402;-81
2023/10/24 01:08:16;;;;;;;0.47;0.47;;;;;;;14.16;81.08;100222.28;5077058;28;20029;-81
2023/10/24 01:10:42;;;;;;;1.55;1.08;;;;;;;14.19;80.83;100217.69;5083816;28;20033;-82
2023/10/24 01:13:09;;;;;;;0.15;0.15;;;;;;;14.17;81.07;100227.53;5078741;28;20093;-81
2023/10/24 01:15:35;;;;;;;0.52;0.52;;;;;;;14.20;80.94;100222.06;5084149;28;20039;-82
2023/10/24 01:18:02;;;;;;;0.22;0.22;;;;;;;14.20;80.82;100222.06;5074816;28;20062;-81
2023/10/24 01:20:29;;;;;;;0.95;0.95;;;;;;;14.21;80.94;100217.59;5083755;28;20029;-81
2023/10/24 01:22:55;;;;;;;0.43;0.43;;;;;;;14.18;81.17;100210.63;5090466;28;20032;-81
2023/10/24 01:25:23;;;;;;;0.10;0.10;;;;;;;14.17;81.35;100218.69;5086092;28;20024;-82
2023/10/24 01:27:53;;;;;;;0.73;0.47;;;;;;;14.15;81.53;100218.75;5075420;28;20055;-81
2023/10/24 01:30:20;;;;;;;0.10;0.10;;;;;;;14.20;81.08;100219.38;5082901;28;20406;-83
2023/10/24 01:32:46;;;;;;;1.10;1.05;;;;;;;14.22;81.00;100208.69;5080134;28;20032;-82
2023/10/24 01:35:13;;;;;;;0.10;0.10;;;;;;;14.18;81.26;100221.28;5076524;28;20036;-83
2023/10/24 01:37:39;;;;;;;0.50;0.50;;;;;;;14.18;81.24;100210.63;5081389;28;20108;-80
2023/10/24 01:40:06;;;;;;;0.17;0.17;;;;;;;14.18;81.18;100217.72;5089105;28;20509;-83
2023/10/24 01:42:33;;;;;;;0.32;0.32;;;;;;;14.10;81.48;100215.41;5078272;28;20529;-81
2023/10/24 01:44:59;;;;;;;0.22;0.22;;;;;;;14.11;81.10;100214.50;5086697;28;20058;-81
2023/10/24 01:47:25;;;;;;;3.13;1.15;;;;;;;14.01;81.49;100210.53;5077440;28;20444;-82
2023/10/24 01:49:54;;;;;;;3.92;1.58;;;;;;;14.06;81.27;100213.84;5085424;28;20051;-82
2023/10/24 01:52:20;;;;;;;1.65;0.50;;;;;;;14.00;81.41;100208.78;5083798;28;20460;-82
2023/10/24 01:54:46;;;;;;;0.63;0.63;;;;;;;14.00;81.35;100203.47;5072016;28;20057;-83
2023/10/24 01:57:13;;;;;;;0.10;0.10;;;;;;;14.07;80.92;100212.91;5088101;28;20097;-82
2023/10/24 01:59:39;;;;;;;0.60;0.60;;;;;;;14.08;81.07;100217.28;5074739;28;20030;-83
2023/10/24 02:02:05;;;;;;;0.57;0.57;;;;;;;14.02;80.81;100209.59;5082276;28;20024;-82
2023/10/24 02:04:31;;;;;;;0.35;0.35;;;;;;;13.96;81.22;100212.53;5076233;28;20150;-82
2023/10/24 02:06:57;;;;;;;0.63;0.63;;;;;;;14.02;81.12;100212.25;5077530;28;20173;-83
2023/10/24 02:09:23;;;;;;;0.10;0.10;;;;;;;14.06;80.98;100205.84;5082264;28;20379;-83
2023/10/24 02:11:49;;;;;;;2.20;1.50;;;;;;;14.06;80.89;100206.69;5086050;28;20036;-83
2023/10/24 02:14:15;;;;;;;0.45;0.45;;;;;;;14.09;80.66;100208.34;5076287;28;20036;-82
2023/10/24 02:16:42;;;;;;;0.10;0.10;;;;;;;14.05;80.77;100204.13;5077711;28;20029;-82
2023/10/24 02:19:08;;;;;;;0.10;0.10;;;;;;;14.05;80.80;100202.28;5074769;28;20031;-82
2023/10/24 02:21:34;;;;;;;0.10;0.10;;;;;;;14.03;80.76;100200.63;5084683;28;20028;-83
2023/10/24 02:24:00;;;;;;;0.25;0.25;;;;;;;14.02;80.79;100197.13;5080504;28;20119;-83
2023/10/24 02:26:26;;;;;;;0.30;0.30;;;;;;;13.93;80.92;100194.00;5077808;28;20398;-82
2023/10/24 02:28:52;;;;;;;0.52;0.52;;;;;;;13.86;81.23;100190.75;5086283;28;20027;-82
2023/10/24 02:31:19;;;;;;;0.30;0.30;;;;;;;13.96;80.81;100193.88;5080880;28;20479;-83
2023/10/24 02:33:45;;;;;;;0.20;0.20;;;;;;;13.85;80.96;100195.19;5089658;28;20084;-82
2023/10/24 02:36:14;;;;;;;0.82;0.82;;;;;;;13.86;81.02;100188.09;5085433;28;20028;-83
2023/10/24 02:38:40;;;;;;;0.22;0.22;;;;;;;13.85;80.94;100194.34;5078270;28;20043;-81
2023/10/24 02:41:06;;;;;;;0.30;0.30;;;;;;;13.85;80.85;100189.03;5078501;28;20581;-82
2023/10/24 02:43:32;;;;;;;0.50;0.50;;;;;;;13.87;80.76;100190.69;5086880;28;20028;-82
2023/10/24 02:46:02;;;;;;;0.20;0.20;;;;;;;13.84;80.88;100193.47;5077640;28;20040;-81
2023/10/24 02:48:29;;;;;;;1.75;1.65;;;;;;;13.78;80.84;100204.38;5081264;28;20025;-81
2023/10/24 02:50:56;;;;;;;1.55;0.95;;;;;;;13.80;81.00;100202.53;5081017;28;20036;-82
2023/10/24 02:53:23;;;;;;;0.25;0.25;;;;;;;13.81;80.58;100198.94;5083311;28;20418;-82
2023/10/24 02:55:50;;;;;;;0.20;0.20;;;;;;;13.80;80.83;100197.19;5074923;28;20532;-83
2023/10/24 02:58:16;;;;;;;1.50;1.40;;;;;;;13.76;80.84;100200.94;5075649;28;20135;-82
2023/10/24 03:00:44;;;;;;;0.57;0.57;;;;;;;13.79;80.84;100198.13;5085546;28;20028;-82
2023/10/24 03:03:11;;;;;;;1.40;1.23;;;;;;;13.79;80.61;100203.47;5081588;28;20029;-83
2023/10/24 03:05:37;;;;;;;0.55;0.55;;;;;;;13.72;80.78;100196.66;5092662;28;20024;-83
2023/10/24 03:08:05;;;;;;;0.22;0.22;;;;;;;13.73;80.85;100201.94;5089932;28;20032;-84
2023/10/24 03:10:31;;;;;;;0.20;0.20;;;;;;;13.74;80.49;100201.00;5083064;28;20029;-81
2023/10/24 03:12:57;;;;;;;0.20;0.20;;;;;;;13.72;80.71;100204.66;5088179;28;20555;-82
2023/10/24 03:15:23;;;;;;;0.40;0.40;;;;;;;13.69;80.53;100210.13;5084282;28;20063;-82
2023/10/24 03:17:49;;;;;;;0.10;0.10;;;;;;;13.72;80.51;100213.53;5087789;28;20020;-82
2023/10/24 03:20:15;;;;;;;0.10;0.10;;;;;;;13.71;80.33;100202.94;5081243;28;20454;-82
2023/10/24 03:22:42;;;;;;;0.52;0.40;;;;;;;13.69;80.41;100215.44;5087248;28;20024;-82
2023/10/24 03:25:08;;;;;;;1.08;1.02;;;;;;;13.59;80.45;100221.19;5078259;28;20039;-83
2023/10/24 03:27:34;;;;;;;0.55;0.55;;;;;;;13.63;80.57;100221.03;5073225;28;20036;-83
2023/10/24 03:30:00;;;;;;;1.33;1.33;;;;;;;13.70;80.47;100223.34;5084126;28;20040;-83
2023/10/24 03:32:27;;;;;;;0.30;0.30;;;;;;;13.74;80.34;100224.09;5088317;28;20029;-83
2023/10/24 03:34:53;;;;;;;0.75;0.75;;;;;;;13.65;80.43;100224.50;5089827;28;20123;-83
2023/10/24 03:37:20;;;;;;;1.55;1.00;;;;;;;13.73;80.45;100225.03;5087331;28;20063;-83
2023/10/24 03:39:46;;;;;;;0.63;0.63;;;;;;;13.66;80.35;100216.44;5086901;28;20036;-82
2023/10/24 03:42:14;;;;;;;1.23;0.73;;;;;;;13.68;80.41;100217.25;5092472;28;20062;-83
2023/10/24 03:44:41;;;;;;;0.22;0.22;;;;;;;13.73;80.42;100217.03;5076732;28;20028;-82
2023/10/24 03:47:07;;;;;;;1.58;0.85;;;;;;;13.69;80.08;100220.78;5074686;28;20032;-82
2023/10/24 03:49:33;;;;;;;0.50;0.50;;;;;;;13.72;80.26;100221.50;5093371;28;20025;-82
2023/10/24 03:52:00;;;;;;;0.20;0.20;;;;;;;13.73;80.14;100217.91;5089591;28;20060;-82
2023/10/24 03:54:26;;;;;;;0.20;0.20;;;;;;;13.66;80.25;100215.59;5086096;28;20114;-81
2023/10/24 03:56:52;;;;;;;0.35;0.35;;;;;;;13.61;80.26;100226.44;5086645;28;20044;-82
2023/10/24 03:59:18;;;;;;;0.95;0.93;;;;;;;13.63;80.11;100218.38;5099207;28;20052;-81
2023/10/24 04:01:44;;;;;;;1.35;0.85;;;;;;;13.63;80.30;100221.88;5091923;28;20023;-82
2023/10/24 04:04:10;;;;;;;1.00;0.90;;;;;;;13.59;80.28;100213.19;5091334;28;20479;-81
2023/10/24 04:06:36;;;;;;;0.20;0.20;;;;;;;13.55;80.49;100211.56;5093146;28;20021;-82
2023/10/24 04:09:04;;;;;;;0.10;0.10;;;;;;;13.57;80.63;100216.81;5089682;28;20119;-82
2023/10/24 04:11:32;;;;;;;0.93;0.93;;;;;;;13.49;80.49;100219.81;5086501;28;20498;-82
2023/10/24 04:13:59;;;;;;;0.10;0.10;;;;;;;13.51;80.50;100217.97;5086605;28;20024;-83
2023/10/24 04:16:25;;;;;;;0.95;0.95;;;;;;;13.48;80.56;100215.41;5078314;28;20111;-83
2023/10/24 04:18:51;;;;;;;0.20;0.20;;;;;;;13.42;80.87;100218.34;5082804;28;20028;-83
2023/10/24 04:21:18;;;;;;;0.50;0.50;;;;;;;13.43;80.54;100214.75;5078010;28;20162;-82
2023/10/24 04:23:44;;;;;;;0.32;0.32;;;;;;;13.44;80.72;100216.47;5081223;28;20028;-82
2023/10/24 04:26:11;;;;;;;0.50;0.50;;;;;;;13.43;80.57;100214.75;5082894;28;20032;-82
2023/10/24 04:28:38;;;;;;;0.80;0.63;;;;;;;13.46;80.67;100206.66;5084089;28;20020;-81
2023/10/24 04:31:04;;;;;;;1.10;1.02;;;;;;;13.49;80.73;100203.84;5081141;28;20034;-81
2023/10/24 04:33:30;;;;;;;0.22;0.22;;;;;;;13.32;81.10;100206.31;5092724;28;20047;-81
2023/10/24 04:35:57;;;;;;;0.10;0.10;;;;;;;13.42;80.96;100199.72;5083598;28;20028;-81
2023/10/24 04:38:23;;;;;;;1.65;1.27;;;;;;;13.35;81.45;100206.22;5085001;28;20035;-82
2023/10/24 04:40:51;;;;;;;0.47;0.47;;;;;;;13.44;81.16;100197.84;5081503;28;20036;-84
2023/10/24 04:43:18;;;;;;;0.60;0.60;;;;;;;13.48;80.99;100202.09;5081883;28;20028;-83
2023/10/24 04:45:44;;;;;;;0.40;0.40;;;;;;;13.48;80.92;100198.59;5079679;28;20021;-82
2023/10/24 04:48:11;;;;;;;0.30;0.30;;;;;;;13.46;80.62;100187.13;5078386;28;20071;-82
2023/10/24 04:50:38;;;;;;;2.22;0.60;;;;;;;13.51;80.74;100191.34;5093489;28;20040;-82
2023/10/24 04:53:05;;;;;;;1.15;0.50;;;;;;;13.51;80.73;100188.69;5086299;28;20505;-80
2023/10/24 04:55:32;;;;;;;0.68;0.68;;;;;;;13.51;81.10;100193.16;5088722;28;20032;-81
2023/10/24 04:57:59;;;;;;;0.85;0.85;;;;;;;13.49;80.54;100187.88;5089922;28;20024;-82
2023/10/24 05:00:25;;;;;;;1.52;1.42;;;;;;;13.47;80.51;100187.09;5088771;28;20036;-82
2023/10/24 05:02:52;;;;;;;0.38;0.32;;;;;;;13.50;80.42;100184.28;5078263;28;20032;-83
2023/10/24 05:05:18;;;;;;;0.20;0.20;;;;;;;13.53;80.41;100178.84;5079819;28;20047;-83
2023/10/24 05:07:44;;;;;;;0.20;0.20;;;;;;;13.51;80.63;100175.38;5085791;28;20028;-83
2023/10/24 05:10:11;;;;;;;0.85;0.85;;;;;;;13.49;80.68;100171.91;5081217;28;20032;-83
2023/10/24 05:12:37;;;;;;;0.10;0.10;;;;;;;13.52;80.53;100163.81;5072309;28;20032;-84
2023/10/24 05:15:04;;;;;;;0.10;0.10;;;;;;;13.49;80.52;100161.25;5068681;28;20028;-83
2023/10/24 05:17:31;;;;;;;0.40;0.40;;;;;;;13.53;80.37;100159.34;5076430;28;20039;-83
2023/10/24 05:20:02;;;;;;;0.30;0.30;;;;;;;13.53;80.06;100159.34;5074745;28;20024;-82
2023/10/24 05:22:28;;;;;;;1.20;1.20;;;;;;;13.42;80.12;100144.72;5081784;28;20024;-82
2023/10/24 05:24:54;;;;;;;0.32;0.32;;;;;;;13.47;80.08;100152.50;5083235;28;20032;-83
2023/10/24 05:27:21;;;;;;;0.20;0.20;;;;;;;13.45;80.28;100154.34;5084049;28;20067;-83
2023/10/24 05:29:47;;;;;;;0.47;0.47;;;;;;;13.43;79.95;100164.19;5082575;28;20032;-83
2023/10/24 05:32:13;;;;;;;0.20;0.20;;;;;;;13.38;79.92;100152.88;5093555;28;20032;-83
2023/10/24 05:34:39;;;;;;;0.10;0.10;;;;;;;13.40;79.83;100146.56;5077199;28;20036;-83
2023/10/24 05:37:05;;;;;;;0.52;0.52;;;;;;;13.42;80.08;100143.81;5086952;28;20019;-85
2023/10/24 05:39:31;;;;;;;0.20;0.20;;;;;;;13.30;80.33;100150.53;5075356;28;20099;-84
2023/10/24 05:41:57;;;;;;;0.63;0.63;;;;;;;13.34;79.92;100146.78;5086379;28;20032;-82
2023/10/24 05:44:23;;;;;;;0.55;0.55;;;;;;;13.30;80.15;100149.66;5089506;28;20030;-82
2023/10/24 05:46:50;;;;;;;0.28;0.28;;;;;;;13.35;79.89;100153.00;5085377;28;20044;-84
2023/10/24 05:49:17;;;;;;;0.63;0.38;;;;;;;13.35;80.10;100158.31;5086736;28;20093;-84
2023/10/24 05:51:43;;;;;;;0.20;0.20;;;;;;;13.37;79.77;100168.00;5087107;28;20029;-86
2023/10/24 05:54:09;;;;;;;0.50;0.50;;;;;;;13.41;80.05;100168.72;5085126;28;20024;-87
2023/10/24 05:56:35;;;;;;;2.17;1.58;;;;;;;13.40;79.99;100164.34;5081759;28;20096;-85
2023/10/24 05:59:02;;;;;;;0.60;0.60;;;;;;;13.40;79.80;100162.53;5094877;28;20491;-84
2023/10/24 06:01:28;;;;;;;0.70;0.70;;;;;;;13.39;79.72;100171.44;5090762;28;20084;-84
2023/10/24 06:03:54;;;;;;;1.65;1.55;;;;;;;13.40;79.73;100164.34;5086507;28;20025;-84
2023/10/24 06:06:20;;;;;;;0.10;0.10;;;;;;;13.38;79.93;100168.84;5096071;28;20035;-85
2023/10/24 06:08:46;;;;;;;1.10;1.10;;;;;;;13.34;79.79;100177.88;5081989;28;20040;-84
2023/10/24 06:11:15;;;;;;;1.02;1.02;;;;;;;13.34;79.49;100177.88;5092004;28;20032;-86
2023/10/24 06:13:41;;;;;;;0.10;0.10;;;;;;;13.38;79.58;100174.16;5073396;28;20056;-84
2023/10/24 06:16:13;;;;;;;0.60;0.60;;;;;;;13.38;79.88;100171.50;5070821;28;20028;-85
2023/10/24 06:18:39;;;;;;;0.30;0.30;;;;;;;13.34;79.64;100184.03;5067254;28;20040;-84
2023/10/24 06:21:06;;;;;;;0.43;0.43;;;;;;;13.30;80.17;100186.91;5079413;28;20036;-84
2023/10/24 06:23:33;;;;;;;0.20;0.20;;;;;;;13.35;79.75;100183.13;5074427;28;20548;-84
2023/10/24 06:26:00;;;;;;;0.30;0.30;;;;;;;13.30;79.79;100192.22;5072040;28;20032;-84
2023/10/24 06:28:27;;;;;;;1.00;1.00;;;;;;;13.27;79.32;100187.88;5073842;28;20039;-84
2023/10/24 06:31:00;;;;;;;1.77;1.60;;;;;;;13.29;79.66;100190.50;5073385;28;20032;-84
2023/10/24 06:33:27;;;;;;;1.50;0.88;;;;;;;13.23;79.69;100192.50;5076859;28;20093;-84
2023/10/24 06:35:54;;;;;;;0.73;0.73;;;;;;;13.26;79.73;100195.00;5081144;28;20070;-85
2023/10/24 06:38:21;;;;;;;0.55;0.55;;;;;;;13.30;79.73;100189.56;5074668;28;20024;-85
2023/10/24 06:40:48;;;;;;;1.33;0.98;;;;;;;13.30;79.58;100202.88;5080400;28;20039;-85
2023/10/24 06:43:14;;;;;;;1.55;1.55;;;;;;;13.33;79.41;100194.75;5071364;28;20024;-85
2023/10/24 06:45:43;;;;;;;1.60;1.50;;;;;;;13.36;79.51;100199.97;5085407;28;20503;-84
2023/10/24 06:48:11;;;;;;;1.40;1.40;;;;;;;13.37;79.32;100199.94;5067140;28;20052;-83
2023/10/24 06:50:39;;;;;;;0.55;0.55;;;;;;;13.41;79.54;100200.66;5079703;28;20676;-84
2023/10/24 06:53:06;;;;;;;0.13;0.13;;;;;;;13.43;79.16;100209.44;5083649;28;20024;-84
2023/10/24 06:55:32;;;;;;;0.40;0.40;;;;;;;13.37;79.50;100207.91;5077452;28;20028;-84
2023/10/24 06:57:59;;;;;;;1.15;1.05;;;;;;;13.45;79.35;100217.38;5079034;28;20091;-84
2023/10/24 07:00:25;;;;;;;0.20;0.20;;;;;;;13.44;79.28;100224.47;5068908;28;20586;-83
2023/10/24 07:02:52;;;;;;;0.88;0.88;;;;;;;13.39;79.23;100229.13;5078033;28;20040;-87
2023/10/24 07:05:19;;;;;;;0.10;0.10;;;;;;;13.39;79.26;100227.31;5088293;28;20147;-87
2023/10/24 07:07:45;;;;;;;0.25;0.25;;;;;;;13.40;78.85;100226.38;5086232;28;20027;-85
2023/10/24 07:10:12;;;;;;;0.15;0.15;;;;;;;13.46;78.98;100219.06;5081101;28;20032;-87
2023/10/24 07:12:38;;;;;;;1.88;0.80;;;;;;;13.49;79.15;100205.66;5078002;28;20081;-90
2023/10/24 07:15:05;;;;;;;0.20;0.20;;;;;;;13.46;79.00;100190.69;5085998;28;20509;-89
2023/10/24 07:17:31;;;;;;;1.05;1.05;;;;;;;13.46;78.66;100204.00;5078847;28;20041;-88
2023/10/24 07:19:59;;;;;;;23.70;1.75;;;;;;;13.49;78.60;100203.84;5084799;28;20032;-86
2023/10/24 07:22:26;;;;;;;1.10;0.80;;;;;;;13.45;78.65;100207.56;5084939;28;20502;-86
2023/10/24 07:24:53;;;;;;;2.75;1.45;;;;;;;13.42;78.95;100207.69;5077178;28;20035;-86
2023/10/24 07:27:19;;;;;;;0.38;0.38;;;;;;;13.45;78.82;100202.25;5089731;28;20473;-86
2023/10/24 07:29:45;;;;;;;1.95;0.75;;;;;;;13.50;78.96;100200.25;5075423;28;20047;-84
2023/10/24 07:32:12;;;;;;;0.10;0.10;;;;;;;13.49;78.58;100206.50;5090246;28;20021;-84
2023/10/24 07:34:41;;;;;;;0.90;0.90;;;;;;;13.53;78.46;100202.81;5078384;28;20024;-84
2023/10/24 07:37:07;;;;;;;0.73;0.32;;;;;;;13.48;78.77;100202.09;5076119;28;20032;-84
2023/10/24 07:39:35;;;;;;;0.15;0.15;;;;;;;13.48;78.33;100212.75;5070884;28;20024;-82
2023/10/24 07:42:01;;;;;;;0.55;0.55;;;;;;;13.48;78.44;100209.25;5080011;28;20037;-84
2023/10/24 07:44:28;;;;;;;0.10;0.10;;;;;;;13.46;78.33;100206.66;5074323;28;20021;-84
2023/10/24 07:46:54;;;;;;;1.33;1.33;;;;;;;13.48;78.54;100206.59;5079979;28;20036;-81
2023/10/24 07:49:21;;;;;;;0.22;0.22;;;;;;;13.51;78.42;100198.47;5092009;28;20040;-81
2023/10/24 07:51:47;;;;;;;0.47;0.47;;;;;;;13.56;78.60;100199.16;5087802;28;20032;-82
2023/10/24 07:54:13;;;;;;;0.20;0.20;;;;;;;13.66;78.67;100189.81;5087610;28;20055;-82
2023/10/24 07:56:41;;;;;;;0.15;0.15;;;;;;;13.69;78.61;100188.81;5085505;28;20042;-84
2023/10/24 07:59:07;;;;;;;1.30;1.27;;;;;;;13.67;78.51;100193.34;5091316;28;20024;-84
2023/10/24 08:01:34;;;;;;;1.00;0.82;;;;;;;13.80;78.48;100186.56;5083236;28;20028;-81
2023/10/24 08:04:00;;;;;;;0.10;0.10;;;;;;;13.81;78.02;100193.63;5083815;28;20402;-82
2023/10/24 08:06:27;;;;;;;0.38;0.38;;;;;;;13.86;78.06;100196.94;5095608;28;20032;-83
2023/10/24 08:08:53;;;;;;;0.65;0.65;;;;;;;13.88;77.98;100184.44;5087191;28;20055;-82
2023/10/24 08:11:19;;;;;;;0.20;0.20;;;;;;;13.86;77.53;100180.97;5096370;28;20039;-83
2023/10/24 08:13:45;;;;;;;1.55;0.73;;;;;;;13.88;77.36;100197.75;5099839;28;20032;-83
2023/10/24 08:16:12;;;;;;;0.30;0.30;;;;;;;13.90;76.59;100195.84;5103757;28;20115;-82
2023/10/24 08:18:39;;;;;;;0.70;0.70;;;;;;;14.08;76.53;100187.97;5100329;28;20050;-83
2023/10/24 08:21:05;;;;;;;0.43;0.43;;;;;;;14.12;76.33;100186.94;5088459;28;20402;-82
2023/10/24 08:23:31;;;;;;;0.35;0.35;;;;;;;14.13;75.99;100183.34;5094786;28;20567;-82
2023/10/24 08:25:57;;;;;;;0.30;0.30;;;;;;;14.22;75.71;100185.56;5088313;28;20086;-84
2023/10/24 08:28:24;;;;;;;0.82;0.82;;;;;;;14.18;75.29;100181.31;5090958;28;20020;-83
2023/10/24 08:30:50;;;;;;;0.20;0.20;;;;;;;14.32;75.13;100186.00;5085662;28;20024;-84
2023/10/24 08:33:18;;;;;;;0.75;0.75;;;;;;;14.36;75.19;100181.41;5094441;28;20032;-84
2023/10/24 08:35:45;;;;;;;0.20;0.20;;;;;;;14.35;75.10;100183.19;5089091;28;20033;-83
2023/10/24 08:38:11;;;;;;;4.05;0.55;;;;;;;14.31;75.00;100173.63;5086747;28;20028;-84
2023/10/24 08:40:39;;;;;;;1.75;1.65;;;;;;;14.30;74.75;100173.69;5093676;28;20108;-84
2023/10/24 08:43:05;;;;;;;0.68;0.68;;;;;;;14.28;74.58;100180.88;5093237;28;20092;-85
2023/10/24 08:45:31;;;;;;;2.10;1.30;;;;;;;14.31;73.90;100181.59;5093438;28;20111;-84
2023/10/24 08:47:59;;;;;;;1.27;1.00;;;;;;;14.31;73.55;100180.75;5090026;28;20107;-85
2023/10/24 08:50:25;;;;;;;3.05;1.20;;;;;;;14.29;73.59;100171.97;5090685;28;20063;-84
2023/10/24 08:52:52;;;;;;;0.20;0.20;;;;;;;14.29;73.41;100187.94;5087282;28;20037;-85
2023/10/24 08:55:19;;;;;;;1.95;1.63;;;;;;;14.32;73.82;100188.66;5081747;28;20013;-85
2023/10/24 08:57:46;;;;;;;2.63;0.85;;;;;;;14.35;73.83;100198.31;5084153;28;20024;-84
2023/10/24 09:00:14;;;;;;;0.13;0.13;;;;;;;14.37;74.07;100202.66;5093347;28;20024;-84
2023/10/24 09:02:42;;;;;;;0.60;0.60;;;;;;;14.39;73.90;100199.91;5083747;28;20039;-84
2023/10/24 09:05:10;;;;;;;0.30;0.30;;;;;;;14.45;73.88;100188.97;5081599;28;20530;-85
2023/10/24 09:07:37;;;;;;;2.38;0.95;;;;;;;14.43;73.71;100190.84;5083566;28;20067;-84
2023/10/24 09:10:03;;;;;;;0.75;0.75;;;;;;;14.49;73.57;100195.91;5092958;28;20153;-84
2023/10/24 09:12:31;;;;;;;0.10;0.10;;;;;;;14.48;73.24;100207.50;5075831;28;20032;-84
2023/10/24 09:14:58;;;;;;;0.10;0.10;;;;;;;14.51;73.46;100207.31;5088549;28;20040;-84
2023/10/24 09:17:25;;;;;;;0.43;0.43;;;;;;;14.50;73.27;100213.59;5081893;28;20091;-85
2023/10/24 09:19:55;;;;;;;0.10;0.10;;;;;;;14.53;73.16;100207.28;5088277;28;20036;-84
2023/10/24 09:22:22;;;;;;;1.55;1.45;;;;;;;14.57;72.73;100209.72;5077481;28;20074;-85
2023/10/24 09:24:49;;;;;;;0.65;0.65;;;;;;;14.62;72.56;100216.66;5083917;28;20070;-84
2023/10/24 09:27:16;;;;;;;0.17;0.17;;;;;;;14.64;72.91;100207.63;5072496;28;20623;-83
2023/10/24 09:29:43;;;;;;;0.10;0.10;;;;;;;14.73;72.83;100209.03;5075261;28;20016;-83
2023/10/24 09:32:15;;;;;;;0.10;0.10;;;;;;;14.74;71.95;100205.41;5082139;28;20040;-83
2023/10/24 09:34:43;;;;;;;2.20;1.17;;;;;;;14.68;72.28;100211.06;5076996;28;20024;-83
2023/10/24 09:37:10;;;;;;;0.57;0.57;;;;;;;14.66;72.00;100218.25;5085656;28;20031;-84
2023/10/24 09:39:57;;;;;;;1.75;1.65;;;;;;;14.75;71.66;100223.13;5084976;28;20016;-84
2023/10/24 09:42:26;;;;;;;0.35;0.35;;;;;;;14.64;71.73;100226.31;5082065;28;20024;-83
2023/10/24 09:44:55;;;;;;;0.25;0.25;;;;;;;14.57;72.02;100220.38;5082173;28;20028;-83
2023/10/24 09:47:22;;;;;;;0.10;0.10;;;;;;;14.60;71.82;100216.69;5071745;28;20482;-83
2023/10/24 09:49:51;;;;;;;0.35;0.35;;;;;;;14.56;71.77;100217.78;5081875;28;20127;-83
2023/10/24 09:52:19;;;;;;;0.28;0.28;;;;;;;14.61;72.11;100213.09;5086458;28;20031;-83
2023/10/24 09:54:48;;;;;;;0.22;0.22;;;;;;;14.66;72.08;100212.94;5073646;28;20025;-83
2023/10/24 09:57:19;;;;;;;0.43;0.43;;;;;;;14.62;72.39;100206.84;5081273;28;20035;-83
2023/10/24 09:59:49;;;;;;;0.40;0.40;;;;;;;14.61;72.01;100206.91;5088167;28;20063;-85
2023/10/24 10:02:16;;;;;;;1.90;1.33;;;;;;;14.68;72.24;100200.41;5081557;28;20082;-84
2023/10/24 10:04:43;;;;;;;0.45;0.45;;;;;;;14.71;72.41;100203.75;5074156;28;20020;-84
2023/10/24 10:07:11;;;;;;;0.30;0.30;;;;;;;14.68;71.90;100205.72;5068277;28;20031;-84
2023/10/24 10:09:42;;;;;;;0.20;0.20;;;;;;;14.65;72.34;100205.84;5077108;28;20475;-82
2023/10/24 10:12:12;;;;;;;0.10;0.10;;;;;;;14.60;72.31;100206.03;5080212;28;20044;-83
2023/10/24 10:14:51;;;;;;;0.10;0.10;;;;;;;14.54;72.56;100220.53;5083925;28;20035;-83
2023/10/24 10:17:38;;;;;;;0.40;0.40;;;;;;;14.53;72.46;100210.81;5075757;28;20028;-85
2023/10/24 10:23:13;;;;;;;1.95;1.20;;;;;;;14.48;72.67;100204.81;5143878;27;20362;-82
2023/10/24 10:25:54;;;;;;;4.03;2.60;;;;;;;14.47;72.83;100208.41;5092468;28;20032;-84
2023/10/24 10:28:44;;;;;;;1.38;0.35;;;;;;;14.43;72.94;100200.63;5104506;28;20032;-85
2023/10/24 10:31:39;;;;;;;0.10;0.10;;;;;;;14.50;72.75;100202.06;5092339;28;20084;-84
2023/10/24 10:34:06;;;;;;;0.13;0.13;;;;;;;14.45;72.97;100206.75;5102342;28;20054;-84
2023/10/24 10:36:32;;;;;;;0.82;0.82;;;;;;;14.30;73.11;100203.00;5090929;28;20039;-83
2023/10/24 10:39:00;;;;;;;0.10;0.10;;;;;;;14.35;73.02;100201.84;5093430;28;20054;-84
2023/10/24 10:44:38;;;;;;;0.50;0.50;;;;;;;14.45;73.10;100199.63;5091811;27;20444;-83
2023/10/24 10:47:06;;;;;;;0.10;0.10;;;;;;;14.43;72.95;100201.50;5068671;28;20043;-83
2023/10/24 10:49:51;;;;;;;1.08;0.52;;;;;;;14.54;73.07;100201.00;5073390;28;20024;-82
2023/10/24 10:55:35;;;;;;;0.10;0.10;;;;;;;14.59;73.15;100198.97;5132003;27;20197;-82
2023/10/24 10:58:32;;;;;;;0.47;0.47;;;;;;;14.68;72.67;100200.41;5114182;28;20066;-83
2023/10/24 11:03:56;;;;;;;0.35;0.35;;;;;;;14.56;72.57;100202.63;5102456;27;20937;-82
2023/10/24 11:06:26;;;;;;;0.30;0.30;;;;;;;14.55;72.78;100192.94;5073103;28;20502;-82
2023/10/24 11:09:13;;;;;;;0.95;0.95;;;;;;;14.54;72.71;100193.88;5072217;28;20040;-82
2023/10/24 11:11:39;;;;;;;0.10;0.10;;;;;;;14.37;72.82;100186.66;5073563;28;20577;-82
2023/10/24 11:14:19;;;;;;;1.25;1.25;;;;;;;14.50;72.84;100189.59;5073100;28;20031;-82
2023/10/24 11:16:48;;;;;;;0.50;0.50;;;;;;;14.52;72.76;100195.72;5072559;28;20032;-82
2023/10/24 11:19:29;;;;;;;0.10;0.10;;;;;;;14.59;72.83;100200.78;5072819;28;20789;-82
2023/10/24 11:21:56;;;;;;;0.20;0.20;;;;;;;14.45;72.99;100194.28;5073650;28;20492;-82
2023/10/24 11:24:23;;;;;;;0.20;0.20;;;;;;;14.48;73.24;100186.16;5072105;28;20033;-82
2023/10/24 11:26:56;;;;;;;0.10;0.10;;;;;;;14.36;73.15;100184.91;5067756;28;20029;-82
2023/10/24 11:29:22;;;;;;;;;;;;;;;14.43;73.50;100190.84;5073464;28;20048;-83
2023/10/24 11:31:48;;;;;;;0.10;0.10;;;;;;;14.23;74.10;100179.31;5078509;28;19916;-82
2023/10/24 11:34:15;;;;;;;0.20;0.20;;;;;;;14.28;74.14;100175.56;5073503;28;20029;-84
2023/10/24 11:36:42;;;;;;;0.08;0.08;;;;;;;14.24;74.12;100170.38;5076892;28;20059;-84
2023/10/24 11:39:09;;;;;;;0.10;0.10;;;;;;;14.05;75.02;100172.16;5073100;28;20044;-84